sensor_id;sensor_type;location;lat;lon;timestamp;temperature;humidity
65203;HTU21D;51788;45.124;38.966;2024-02-26T00:00:40;1.99;69.23
65203;HTU21D;51788;45.124;38.966;2024-02-26T00:03:06;1.98;69.50
65203;HTU21D;51788;45.124;38.966;2024-02-26T00:05:32;1.97;69.54
65203;HTU21D;51788;45.124;38.966;2024-02-26T00:07:58;1.95;69.61
65203;HTU21D;51788;45.124;38.966;2024-02-26T00:10:24;1.88;69.53
65203;HTU21D;51788;45.124;38.966;2024-02-26T00:12:50;1.87;70.03
65203;HTU21D;51788;45.124;38.966;2024-02-26T00:15:16;1.86;70.23
65203;HTU21D;51788;45.124;38.966;2024-02-26T00:17:42;1.79;69.96
65203;HTU21D;51788;45.124;38.966;2024-02-26T00:20:09;1.78;69.81
65203;HTU21D;51788;45.124;38.966;2024-02-26T00:22:36;1.76;69.95
65203;HTU21D;51788;45.124;38.966;2024-02-26T00:25:02;1.72;70.14
65203;HTU21D;51788;45.124;38.966;2024-02-26T00:27:28;1.72;70.81
65203;HTU21D;51788;45.124;38.966;2024-02-26T00:29:54;1.65;70.44
65203;HTU21D;51788;45.124;38.966;2024-02-26T00:32:20;1.63;70.60
65203;HTU21D;51788;45.124;38.966;2024-02-26T00:34:46;1.61;70.88
65203;HTU21D;51788;45.124;38.966;2024-02-26T00:37:12;1.56;70.73
65203;HTU21D;51788;45.124;38.966;2024-02-26T00:39:38;1.57;71.45
65203;HTU21D;51788;45.124;38.966;2024-02-26T00:42:04;1.51;71.10
65203;HTU21D;51788;45.124;38.966;2024-02-26T00:44:30;1.50;71.36
65203;HTU21D;51788;45.124;38.966;2024-02-26T00:46:56;1.48;71.66
65203;HTU21D;51788;45.124;38.966;2024-02-26T00:49:21;1.45;71.77
65203;HTU21D;51788;45.124;38.966;2024-02-26T00:51:47;1.40;71.81
65203;HTU21D;51788;45.124;38.966;2024-02-26T00:54:13;1.39;71.80
65203;HTU21D;51788;45.124;38.966;2024-02-26T00:56:39;1.37;71.93
65203;HTU21D;51788;45.124;38.966;2024-02-26T00:59:05;1.35;71.95
65203;HTU21D;51788;45.124;38.966;2024-02-26T01:01:31;1.31;71.99
65203;HTU21D;51788;45.124;38.966;2024-02-26T01:03:57;1.26;71.89
65203;HTU21D;51788;45.124;38.966;2024-02-26T01:06:23;1.26;72.16
65203;HTU21D;51788;45.124;38.966;2024-02-26T01:08:49;1.24;72.20
65203;HTU21D;51788;45.124;38.966;2024-02-26T01:11:16;1.22;72.22
65203;HTU21D;51788;45.124;38.966;2024-02-26T01:13:42;1.21;72.59
65203;HTU21D;51788;45.124;38.966;2024-02-26T01:16:08;1.17;72.71
65203;HTU21D;51788;45.124;38.966;2024-02-26T01:18:34;1.16;72.85
65203;HTU21D;51788;45.124;38.966;2024-02-26T01:21:00;1.09;72.67
65203;HTU21D;51788;45.124;38.966;2024-02-26T01:23:26;1.07;72.79
65203;HTU21D;51788;45.124;38.966;2024-02-26T01:25:52;1.06;72.93
65203;HTU21D;51788;45.124;38.966;2024-02-26T01:28:18;1.07;72.93
65203;HTU21D;51788;45.124;38.966;2024-02-26T01:30:44;1.06;73.11
65203;HTU21D;51788;45.124;38.966;2024-02-26T01:33:10;1.05;73.19
65203;HTU21D;51788;45.124;38.966;2024-02-26T01:35:36;1.04;73.33
65203;HTU21D;51788;45.124;38.966;2024-02-26T01:38:02;1.04;73.59
65203;HTU21D;51788;45.124;38.966;2024-02-26T01:40:28;1.01;73.38
65203;HTU21D;51788;45.124;38.966;2024-02-26T01:42:54;0.99;73.51
65203;HTU21D;51788;45.124;38.966;2024-02-26T01:45:20;0.99;73.56
65203;HTU21D;51788;45.124;38.966;2024-02-26T01:47:52;0.96;73.64
65203;HTU21D;51788;45.124;38.966;2024-02-26T01:50:19;0.97;73.80
65203;HTU21D;51788;45.124;38.966;2024-02-26T01:52:46;0.94;73.34
65203;HTU21D;51788;45.124;38.966;2024-02-26T01:55:13;0.96;73.78
65203;HTU21D;51788;45.124;38.966;2024-02-26T01:57:42;0.94;73.69
65203;HTU21D;51788;45.124;38.966;2024-02-26T02:00:08;0.91;73.83
65203;HTU21D;51788;45.124;38.966;2024-02-26T02:02:36;0.89;73.93
65203;HTU21D;51788;45.124;38.966;2024-02-26T02:05:02;0.89;74.15
65203;HTU21D;51788;45.124;38.966;2024-02-26T02:07:29;0.88;74.02
65203;HTU21D;51788;45.124;38.966;2024-02-26T02:09:56;0.84;74.00
65203;HTU21D;51788;45.124;38.966;2024-02-26T02:12:22;0.84;74.18
65203;HTU21D;51788;45.124;38.966;2024-02-26T02:14:48;0.83;74.27
65203;HTU21D;51788;45.124;38.966;2024-02-26T02:17:14;0.77;74.09
65203;HTU21D;51788;45.124;38.966;2024-02-26T02:19:40;0.76;74.14
65203;HTU21D;51788;45.124;38.966;2024-02-26T02:22:06;0.78;74.38
65203;HTU21D;51788;45.124;38.966;2024-02-26T02:24:32;0.74;74.33
65203;HTU21D;51788;45.124;38.966;2024-02-26T02:26:58;0.74;74.48
65203;HTU21D;51788;45.124;38.966;2024-02-26T02:29:24;0.75;74.75
65203;HTU21D;51788;45.124;38.966;2024-02-26T02:31:50;0.71;74.60
65203;HTU21D;51788;45.124;38.966;2024-02-26T02:34:16;0.66;74.53
65203;HTU21D;51788;45.124;38.966;2024-02-26T02:36:52;0.65;74.73
65203;HTU21D;51788;45.124;38.966;2024-02-26T02:39:19;0.63;74.71
65203;HTU21D;51788;45.124;38.966;2024-02-26T02:41:45;0.61;74.66
65203;HTU21D;51788;45.124;38.966;2024-02-26T02:44:11;0.60;74.65
65203;HTU21D;51788;45.124;38.966;2024-02-26T02:46:38;0.63;75.21
65203;HTU21D;51788;45.124;38.966;2024-02-26T02:49:07;0.59;75.12
65203;HTU21D;51788;45.124;38.966;2024-02-26T02:51:33;0.58;75.09
65203;HTU21D;51788;45.124;38.966;2024-02-26T02:53:59;0.57;75.25
65203;HTU21D;51788;45.124;38.966;2024-02-26T02:56:25;0.52;75.00
65203;HTU21D;51788;45.124;38.966;2024-02-26T02:58:51;0.50;75.16
65203;HTU21D;51788;45.124;38.966;2024-02-26T03:01:17;0.48;75.24
65203;HTU21D;51788;45.124;38.966;2024-02-26T03:03:43;0.47;75.37
65203;HTU21D;51788;45.124;38.966;2024-02-26T03:06:09;0.49;75.75
65203;HTU21D;51788;45.124;38.966;2024-02-26T03:08:35;0.46;75.57
65203;HTU21D;51788;45.124;38.966;2024-02-26T03:11:05;0.46;75.68
65203;HTU21D;51788;45.124;38.966;2024-02-26T03:13:31;0.43;75.70
65203;HTU21D;51788;45.124;38.966;2024-02-26T03:15:57;0.40;75.70
65203;HTU21D;51788;45.124;38.966;2024-02-26T03:18:23;0.40;75.78
65203;HTU21D;51788;45.124;38.966;2024-02-26T03:20:49;0.39;75.61
65203;HTU21D;51788;45.124;38.966;2024-02-26T03:23:15;0.36;75.68
65203;HTU21D;51788;45.124;38.966;2024-02-26T03:25:45;0.35;75.67
65203;HTU21D;51788;45.124;38.966;2024-02-26T03:28:13;0.35;75.83
65203;HTU21D;51788;45.124;38.966;2024-02-26T03:30:39;0.33;75.81
65203;HTU21D;51788;45.124;38.966;2024-02-26T03:33:05;0.34;76.02
65203;HTU21D;51788;45.124;38.966;2024-02-26T03:35:31;0.33;76.14
65203;HTU21D;51788;45.124;38.966;2024-02-26T03:37:57;0.30;76.05
65203;HTU21D;51788;45.124;38.966;2024-02-26T03:40:23;0.28;76.11
65203;HTU21D;51788;45.124;38.966;2024-02-26T03:42:50;0.27;76.27
65203;HTU21D;51788;45.124;38.966;2024-02-26T03:45:18;0.23;76.06
65203;HTU21D;51788;45.124;38.966;2024-02-26T03:47:44;0.20;75.98
65203;HTU21D;51788;45.124;38.966;2024-02-26T03:50:10;0.22;76.31
65203;HTU21D;51788;45.124;38.966;2024-02-26T03:52:36;0.20;76.03
65203;HTU21D;51788;45.124;38.966;2024-02-26T03:55:02;0.20;76.07
65203;HTU21D;51788;45.124;38.966;2024-02-26T03:57:28;0.18;76.18
65203;HTU21D;51788;45.124;38.966;2024-02-26T03:59:54;0.18;76.23
65203;HTU21D;51788;45.124;38.966;2024-02-26T04:02:20;0.14;76.15
65203;HTU21D;51788;45.124;38.966;2024-02-26T04:04:46;0.15;76.28
65203;HTU21D;51788;45.124;38.966;2024-02-26T04:07:13;0.13;76.05
65203;HTU21D;51788;45.124;38.966;2024-02-26T04:09:39;0.09;76.15
65203;HTU21D;51788;45.124;38.966;2024-02-26T04:12:06;0.12;76.22
65203;HTU21D;51788;45.124;38.966;2024-02-26T04:14:32;0.09;76.37
65203;HTU21D;51788;45.124;38.966;2024-02-26T04:16:58;0.09;76.28
65203;HTU21D;51788;45.124;38.966;2024-02-26T04:19:24;0.09;76.42
65203;HTU21D;51788;45.124;38.966;2024-02-26T04:21:50;0.07;76.29
65203;HTU21D;51788;45.124;38.966;2024-02-26T04:24:16;0.08;76.39
65203;HTU21D;51788;45.124;38.966;2024-02-26T04:26:42;0.07;76.48
65203;HTU21D;51788;45.124;38.966;2024-02-26T04:29:08;0.09;76.66
65203;HTU21D;51788;45.124;38.966;2024-02-26T04:31:34;0.07;76.50
65203;HTU21D;51788;45.124;38.966;2024-02-26T04:34:01;0.08;76.47
65203;HTU21D;51788;45.124;38.966;2024-02-26T04:36:27;0.07;76.49
65203;HTU21D;51788;45.124;38.966;2024-02-26T04:38:53;0.09;76.47
65203;HTU21D;51788;45.124;38.966;2024-02-26T04:41:22;0.09;76.47
65203;HTU21D;51788;45.124;38.966;2024-02-26T04:43:48;0.10;76.37
65203;HTU21D;51788;45.124;38.966;2024-02-26T04:46:14;0.16;76.65
65203;HTU21D;51788;45.124;38.966;2024-02-26T04:48:40;0.17;76.52
65203;HTU21D;51788;45.124;38.966;2024-02-26T04:51:07;0.18;76.66
65203;HTU21D;51788;45.124;38.966;2024-02-26T04:53:33;0.17;76.33
65203;HTU21D;51788;45.124;38.966;2024-02-26T04:56:00;0.20;76.50
65203;HTU21D;51788;45.124;38.966;2024-02-26T04:58:26;0.22;76.47
65203;HTU21D;51788;45.124;38.966;2024-02-26T05:00:52;0.27;76.50
65203;HTU21D;51788;45.124;38.966;2024-02-26T05:03:18;0.27;76.38
65203;HTU21D;51788;45.124;38.966;2024-02-26T05:05:44;0.33;76.43
65203;HTU21D;51788;45.124;38.966;2024-02-26T05:08:11;0.33;76.23
65203;HTU21D;51788;45.124;38.966;2024-02-26T05:10:38;0.36;76.19
65203;HTU21D;51788;45.124;38.966;2024-02-26T05:13:07;0.42;76.08
65203;HTU21D;51788;45.124;38.966;2024-02-26T05:15:32;0.45;75.97
65203;HTU21D;51788;45.124;38.966;2024-02-26T05:17:59;0.47;75.89
65203;HTU21D;51788;45.124;38.966;2024-02-26T05:20:25;0.51;75.99
65203;HTU21D;51788;45.124;38.966;2024-02-26T05:22:51;0.53;75.79
65203;HTU21D;51788;45.124;38.966;2024-02-26T05:25:17;0.54;75.70
65203;HTU21D;51788;45.124;38.966;2024-02-26T05:27:43;0.59;75.65
65203;HTU21D;51788;45.124;38.966;2024-02-26T05:30:10;0.64;75.64
65203;HTU21D;51788;45.124;38.966;2024-02-26T05:32:37;0.65;75.42
65203;HTU21D;51788;45.124;38.966;2024-02-26T05:35:03;0.71;75.47
65203;HTU21D;51788;45.124;38.966;2024-02-26T05:37:30;0.75;75.33
65203;HTU21D;51788;45.124;38.966;2024-02-26T05:39:56;0.78;75.25
65203;HTU21D;51788;45.124;38.966;2024-02-26T05:42:22;0.82;75.17
65203;HTU21D;51788;45.124;38.966;2024-02-26T05:44:48;0.87;74.94
65203;HTU21D;51788;45.124;38.966;2024-02-26T05:47:14;0.93;74.98
65203;HTU21D;51788;45.124;38.966;2024-02-26T05:49:43;0.94;74.68
65203;HTU21D;51788;45.124;38.966;2024-02-26T05:52:09;0.98;74.69
65203;HTU21D;51788;45.124;38.966;2024-02-26T05:54:35;0.98;74.49
65203;HTU21D;51788;45.124;38.966;2024-02-26T05:57:01;1.05;74.47
65203;HTU21D;51788;45.124;38.966;2024-02-26T05:59:27;1.12;74.21
65203;HTU21D;51788;45.124;38.966;2024-02-26T06:01:53;1.16;74.09
65203;HTU21D;51788;45.124;38.966;2024-02-26T06:04:19;1.18;74.06
65203;HTU21D;51788;45.124;38.966;2024-02-26T06:06:45;1.21;74.08
65203;HTU21D;51788;45.124;38.966;2024-02-26T06:09:11;1.25;73.88
65203;HTU21D;51788;45.124;38.966;2024-02-26T06:11:37;1.31;73.78
65203;HTU21D;51788;45.124;38.966;2024-02-26T06:14:03;1.34;73.66
65203;HTU21D;51788;45.124;38.966;2024-02-26T06:16:29;1.37;73.64
65203;HTU21D;51788;45.124;38.966;2024-02-26T06:18:55;1.38;73.66
65203;HTU21D;51788;45.124;38.966;2024-02-26T06:21:22;1.45;73.53
65203;HTU21D;51788;45.124;38.966;2024-02-26T06:23:48;1.52;73.29
65203;HTU21D;51788;45.124;38.966;2024-02-26T06:26:15;1.57;73.20
65203;HTU21D;51788;45.124;38.966;2024-02-26T06:28:41;1.61;72.99
65203;HTU21D;51788;45.124;38.966;2024-02-26T06:31:07;1.64;72.87
65203;HTU21D;51788;45.124;38.966;2024-02-26T06:33:33;1.71;73.01
65203;HTU21D;51788;45.124;38.966;2024-02-26T06:35:59;1.81;72.58
65203;HTU21D;51788;45.124;38.966;2024-02-26T06:38:25;1.86;72.58
65203;HTU21D;51788;45.124;38.966;2024-02-26T06:40:51;1.90;72.25
65203;HTU21D;51788;45.124;38.966;2024-02-26T06:43:18;1.94;72.21
65203;HTU21D;51788;45.124;38.966;2024-02-26T06:45:44;1.99;72.24
65203;HTU21D;51788;45.124;38.966;2024-02-26T06:48:10;2.00;72.15
65203;HTU21D;51788;45.124;38.966;2024-02-26T06:50:36;2.12;72.11
65203;HTU21D;51788;45.124;38.966;2024-02-26T06:53:02;2.20;71.84
65203;HTU21D;51788;45.124;38.966;2024-02-26T06:55:28;2.29;71.55
65203;HTU21D;51788;45.124;38.966;2024-02-26T06:57:54;2.34;71.50
65203;HTU21D;51788;45.124;38.966;2024-02-26T07:00:20;2.40;71.28
65203;HTU21D;51788;45.124;38.966;2024-02-26T07:02:46;2.49;70.87
65203;HTU21D;51788;45.124;38.966;2024-02-26T07:05:12;2.54;71.14
65203;HTU21D;51788;45.124;38.966;2024-02-26T07:07:39;2.62;70.94
65203;HTU21D;51788;45.124;38.966;2024-02-26T07:10:06;2.71;70.71
65203;HTU21D;51788;45.124;38.966;2024-02-26T07:12:32;2.74;70.36
65203;HTU21D;51788;45.124;38.966;2024-02-26T07:14:58;2.83;70.40
65203;HTU21D;51788;45.124;38.966;2024-02-26T07:17:24;2.87;70.36
65203;HTU21D;51788;45.124;38.966;2024-02-26T07:19:50;2.96;70.18
65203;HTU21D;51788;45.124;38.966;2024-02-26T07:22:16;3.01;69.93
65203;HTU21D;51788;45.124;38.966;2024-02-26T07:24:42;3.03;69.45
65203;HTU21D;51788;45.124;38.966;2024-02-26T07:27:09;2.98;69.50
65203;HTU21D;51788;45.124;38.966;2024-02-26T07:29:35;3.04;69.46
65203;HTU21D;51788;45.124;38.966;2024-02-26T07:32:01;3.04;69.49
65203;HTU21D;51788;45.124;38.966;2024-02-26T07:34:27;3.10;69.79
65203;HTU21D;51788;45.124;38.966;2024-02-26T07:36:56;3.24;69.18
65203;HTU21D;51788;45.124;38.966;2024-02-26T07:39:22;3.27;69.51
65203;HTU21D;51788;45.124;38.966;2024-02-26T07:41:48;3.42;69.68
65203;HTU21D;51788;45.124;38.966;2024-02-26T07:44:17;3.55;69.33
65203;HTU21D;51788;45.124;38.966;2024-02-26T07:46:44;3.61;69.27
65203;HTU21D;51788;45.124;38.966;2024-02-26T07:49:10;3.70;69.19
65203;HTU21D;51788;45.124;38.966;2024-02-26T07:51:36;3.74;68.75
65203;HTU21D;51788;45.124;38.966;2024-02-26T07:54:02;3.83;68.58
65203;HTU21D;51788;45.124;38.966;2024-02-26T07:56:28;3.86;68.14
65203;HTU21D;51788;45.124;38.966;2024-02-26T07:58:54;3.89;67.94
65203;HTU21D;51788;45.124;38.966;2024-02-26T08:01:20;3.95;67.53
65203;HTU21D;51788;45.124;38.966;2024-02-26T08:03:46;3.98;67.58
65203;HTU21D;51788;45.124;38.966;2024-02-26T08:06:12;4.02;67.62
65203;HTU21D;51788;45.124;38.966;2024-02-26T08:08:37;4.08;67.30
65203;HTU21D;51788;45.124;38.966;2024-02-26T08:11:04;4.08;67.27
65203;HTU21D;51788;45.124;38.966;2024-02-26T08:13:30;4.15;67.27
65203;HTU21D;51788;45.124;38.966;2024-02-26T08:15:55;4.21;67.26
65203;HTU21D;51788;45.124;38.966;2024-02-26T08:18:22;4.27;66.84
65203;HTU21D;51788;45.124;38.966;2024-02-26T08:20:47;4.32;66.98
65203;HTU21D;51788;45.124;38.966;2024-02-26T08:23:14;4.42;66.86
65203;HTU21D;51788;45.124;38.966;2024-02-26T08:25:40;4.43;66.94
65203;HTU21D;51788;45.124;38.966;2024-02-26T08:28:06;4.52;66.43
65203;HTU21D;51788;45.124;38.966;2024-02-26T08:30:32;4.60;66.60
65203;HTU21D;51788;45.124;38.966;2024-02-26T08:32:59;4.67;66.30
65203;HTU21D;51788;45.124;38.966;2024-02-26T08:35:25;4.71;66.42
65203;HTU21D;51788;45.124;38.966;2024-02-26T08:37:51;4.87;65.48
65203;HTU21D;51788;45.124;38.966;2024-02-26T08:40:17;4.93;65.87
65203;HTU21D;51788;45.124;38.966;2024-02-26T08:42:45;5.06;65.91
65203;HTU21D;51788;45.124;38.966;2024-02-26T08:45:11;5.18;66.15
65203;HTU21D;51788;45.124;38.966;2024-02-26T08:47:38;5.37;65.78
65203;HTU21D;51788;45.124;38.966;2024-02-26T08:50:05;5.41;65.88
65203;HTU21D;51788;45.124;38.966;2024-02-26T08:52:32;5.53;65.30
65203;HTU21D;51788;45.124;38.966;2024-02-26T08:54:58;5.64;65.65
65203;HTU21D;51788;45.124;38.966;2024-02-26T08:57:24;5.80;65.29
65203;HTU21D;51788;45.124;38.966;2024-02-26T08:59:52;5.79;64.35
65203;HTU21D;51788;45.124;38.966;2024-02-26T09:02:18;5.81;65.09
65203;HTU21D;51788;45.124;38.966;2024-02-26T09:04:45;5.93;64.75
65203;HTU21D;51788;45.124;38.966;2024-02-26T09:07:11;5.99;64.01
65203;HTU21D;51788;45.124;38.966;2024-02-26T09:09:37;6.04;64.01
65203;HTU21D;51788;45.124;38.966;2024-02-26T09:12:03;6.15;64.34
65203;HTU21D;51788;45.124;38.966;2024-02-26T09:14:29;6.25;63.93
65203;HTU21D;51788;45.124;38.966;2024-02-26T09:16:55;6.25;63.74
65203;HTU21D;51788;45.124;38.966;2024-02-26T09:19:22;6.33;63.14
65203;HTU21D;51788;45.124;38.966;2024-02-26T09:21:48;6.35;62.60
65203;HTU21D;51788;45.124;38.966;2024-02-26T09:24:14;6.36;63.18
65203;HTU21D;51788;45.124;38.966;2024-02-26T09:26:40;6.48;63.18
65203;HTU21D;51788;45.124;38.966;2024-02-26T09:29:06;6.58;61.95
65203;HTU21D;51788;45.124;38.966;2024-02-26T09:31:34;6.57;61.76
65203;HTU21D;51788;45.124;38.966;2024-02-26T09:34:00;6.58;61.61
65203;HTU21D;51788;45.124;38.966;2024-02-26T09:36:26;6.54;62.11
65203;HTU21D;51788;45.124;38.966;2024-02-26T09:38:52;6.66;62.13
65203;HTU21D;51788;45.124;38.966;2024-02-26T09:41:18;6.73;61.92
65203;HTU21D;51788;45.124;38.966;2024-02-26T09:43:45;6.75;61.67
65203;HTU21D;51788;45.124;38.966;2024-02-26T09:46:14;6.82;62.30
65203;HTU21D;51788;45.124;38.966;2024-02-26T09:48:44;6.98;61.33
65203;HTU21D;51788;45.124;38.966;2024-02-26T09:51:11;7.05;61.19
65203;HTU21D;51788;45.124;38.966;2024-02-26T09:53:41;7.12;61.48
65203;HTU21D;51788;45.124;38.966;2024-02-26T09:56:09;7.16;61.97
65203;HTU21D;51788;45.124;38.966;2024-02-26T09:58:37;7.33;61.68
65203;HTU21D;51788;45.124;38.966;2024-02-26T10:01:10;7.45;61.69
65203;HTU21D;51788;45.124;38.966;2024-02-26T10:03:39;7.57;61.39
65203;HTU21D;51788;45.124;38.966;2024-02-26T10:06:10;7.58;60.54
65203;HTU21D;51788;45.124;38.966;2024-02-26T10:08:37;7.67;60.06
65203;HTU21D;51788;45.124;38.966;2024-02-26T10:11:05;7.70;60.59
65203;HTU21D;51788;45.124;38.966;2024-02-26T10:13:32;7.82;60.14
65203;HTU21D;51788;45.124;38.966;2024-02-26T10:15:58;7.90;59.40
65203;HTU21D;51788;45.124;38.966;2024-02-26T10:18:24;7.98;59.20
65203;HTU21D;51788;45.124;38.966;2024-02-26T10:21:00;8.01;58.86
65203;HTU21D;51788;45.124;38.966;2024-02-26T10:23:27;8.27;59.22
65203;HTU21D;51788;45.124;38.966;2024-02-26T10:25:54;9.27;56.83
65203;HTU21D;51788;45.124;38.966;2024-02-26T10:28:21;9.14;56.24
65203;HTU21D;51788;45.124;38.966;2024-02-26T10:30:47;8.96;57.13
65203;HTU21D;51788;45.124;38.966;2024-02-26T10:33:13;8.82;57.57
65203;HTU21D;51788;45.124;38.966;2024-02-26T10:35:45;8.78;58.22
65203;HTU21D;51788;45.124;38.966;2024-02-26T10:38:11;8.83;58.75
65203;HTU21D;51788;45.124;38.966;2024-02-26T10:40:37;8.88;58.16
65203;HTU21D;51788;45.124;38.966;2024-02-26T10:43:04;8.92;56.94
65203;HTU21D;51788;45.124;38.966;2024-02-26T10:45:29;8.92;56.69
65203;HTU21D;51788;45.124;38.966;2024-02-26T10:47:57;8.91;57.13
65203;HTU21D;51788;45.124;38.966;2024-02-26T10:50:24;8.96;56.82
65203;HTU21D;51788;45.124;38.966;2024-02-26T10:52:50;9.02;56.50
65203;HTU21D;51788;45.124;38.966;2024-02-26T10:55:17;9.05;57.19
65203;HTU21D;51788;45.124;38.966;2024-02-26T10:57:47;9.09;57.36
65203;HTU21D;51788;45.124;38.966;2024-02-26T11:00:15;9.21;56.45
65203;HTU21D;51788;45.124;38.966;2024-02-26T11:02:42;9.21;56.62
65203;HTU21D;51788;45.124;38.966;2024-02-26T11:05:11;9.23;56.44
65203;HTU21D;51788;45.124;38.966;2024-02-26T11:07:38;9.27;56.17
65203;HTU21D;51788;45.124;38.966;2024-02-26T11:10:07;9.41;56.15
65203;HTU21D;51788;45.124;38.966;2024-02-26T11:12:35;9.45;55.91
65203;HTU21D;51788;45.124;38.966;2024-02-26T11:15:03;9.50;55.71
65203;HTU21D;51788;45.124;38.966;2024-02-26T11:17:30;9.62;55.29
65203;HTU21D;51788;45.124;38.966;2024-02-26T11:19:58;9.71;54.55
65203;HTU21D;51788;45.124;38.966;2024-02-26T11:22:25;9.78;55.44
65203;HTU21D;51788;45.124;38.966;2024-02-26T11:24:55;9.84;55.26
65203;HTU21D;51788;45.124;38.966;2024-02-26T11:27:31;9.93;54.44
65203;HTU21D;51788;45.124;38.966;2024-02-26T11:30:00;9.95;54.52
65203;HTU21D;51788;45.124;38.966;2024-02-26T11:32:28;10.03;54.12
65203;HTU21D;51788;45.124;38.966;2024-02-26T11:34:58;10.11;54.21
65203;HTU21D;51788;45.124;38.966;2024-02-26T11:37:24;10.14;53.88
65203;HTU21D;51788;45.124;38.966;2024-02-26T11:39:51;10.22;53.52
65203;HTU21D;51788;45.124;38.966;2024-02-26T11:42:23;10.26;53.39
65203;HTU21D;51788;45.124;38.966;2024-02-26T11:44:50;10.27;53.84
65203;HTU21D;51788;45.124;38.966;2024-02-26T11:47:21;10.37;53.02
65203;HTU21D;51788;45.124;38.966;2024-02-26T11:49:48;10.39;53.36
65203;HTU21D;51788;45.124;38.966;2024-02-26T11:52:15;10.42;53.21
65203;HTU21D;51788;45.124;38.966;2024-02-26T11:54:46;10.48;52.68
65203;HTU21D;51788;45.124;38.966;2024-02-26T11:57:28;10.48;52.61
65203;HTU21D;51788;45.124;38.966;2024-02-26T11:59:56;10.53;52.78
65203;HTU21D;51788;45.124;38.966;2024-02-26T12:02:46;10.59;52.43
65203;HTU21D;51788;45.124;38.966;2024-02-26T12:05:18;10.67;52.80
65203;HTU21D;51788;45.124;38.966;2024-02-26T12:07:47;10.75;52.51
65203;HTU21D;51788;45.124;38.966;2024-02-26T12:10:27;10.80;52.07
65203;HTU21D;51788;45.124;38.966;2024-02-26T12:13:14;10.82;52.04
65203;HTU21D;51788;45.124;38.966;2024-02-26T12:15:43;10.89;51.91
65203;HTU21D;51788;45.124;38.966;2024-02-26T12:18:10;10.95;50.69
65203;HTU21D;51788;45.124;38.966;2024-02-26T12:20:37;10.95;50.69
65203;HTU21D;51788;45.124;38.966;2024-02-26T12:23:03;10.98;50.82
65203;HTU21D;51788;45.124;38.966;2024-02-26T12:25:30;11.04;50.56
65203;HTU21D;51788;45.124;38.966;2024-02-26T12:27:57;11.09;50.05
65203;HTU21D;51788;45.124;38.966;2024-02-26T12:30:24;11.04;50.29
65203;HTU21D;51788;45.124;38.966;2024-02-26T12:32:53;11.07;50.40
65203;HTU21D;51788;45.124;38.966;2024-02-26T12:35:26;11.14;49.58
65203;HTU21D;51788;45.124;38.966;2024-02-26T12:37:53;11.16;49.71
65203;HTU21D;51788;45.124;38.966;2024-02-26T12:40:19;11.16;49.85
65203;HTU21D;51788;45.124;38.966;2024-02-26T12:42:46;11.20;49.54
65203;HTU21D;51788;45.124;38.966;2024-02-26T12:45:13;11.25;48.99
65203;HTU21D;51788;45.124;38.966;2024-02-26T12:47:42;11.19;49.89
65203;HTU21D;51788;45.124;38.966;2024-02-26T12:50:09;11.25;49.38
65203;HTU21D;51788;45.124;38.966;2024-02-26T12:52:43;11.29;49.37
65203;HTU21D;51788;45.124;38.966;2024-02-26T12:55:14;11.33;48.77
65203;HTU21D;51788;45.124;38.966;2024-02-26T12:57:41;11.32;49.11
65203;HTU21D;51788;45.124;38.966;2024-02-26T13:00:16;11.36;48.75
65203;HTU21D;51788;45.124;38.966;2024-02-26T13:02:43;11.40;48.49
65203;HTU21D;51788;45.124;38.966;2024-02-26T13:05:11;11.39;48.57
65203;HTU21D;51788;45.124;38.966;2024-02-26T13:07:44;11.40;48.44
65203;HTU21D;51788;45.124;38.966;2024-02-26T13:10:13;11.38;48.87
65203;HTU21D;51788;45.124;38.966;2024-02-26T13:12:47;11.42;48.31
65203;HTU21D;51788;45.124;38.966;2024-02-26T13:15:19;11.44;47.72
65203;HTU21D;51788;45.124;38.966;2024-02-26T13:17:46;11.42;48.03
65203;HTU21D;51788;45.124;38.966;2024-02-26T13:20:12;11.42;48.25
65203;HTU21D;51788;45.124;38.966;2024-02-26T13:22:40;11.43;48.12
65203;HTU21D;51788;45.124;38.966;2024-02-26T13:25:07;11.47;48.02
65203;HTU21D;51788;45.124;38.966;2024-02-26T13:27:33;11.45;48.08
65203;HTU21D;51788;45.124;38.966;2024-02-26T13:32:38;11.40;47.88
65203;HTU21D;51788;45.124;38.966;2024-02-26T13:35:08;11.42;47.96
65203;HTU21D;51788;45.124;38.966;2024-02-26T13:37:35;11.42;48.08
65203;HTU21D;51788;45.124;38.966;2024-02-26T13:40:05;11.47;47.61
65203;HTU21D;51788;45.124;38.966;2024-02-26T13:42:31;11.45;47.54
65203;HTU21D;51788;45.124;38.966;2024-02-26T13:44:57;11.47;46.60
65203;HTU21D;51788;45.124;38.966;2024-02-26T13:47:23;11.46;47.05
65203;HTU21D;51788;45.124;38.966;2024-02-26T13:49:49;11.44;46.90
65203;HTU21D;51788;45.124;38.966;2024-02-26T13:52:15;11.46;46.64
65203;HTU21D;51788;45.124;38.966;2024-02-26T13:54:41;11.45;46.82
65203;HTU21D;51788;45.124;38.966;2024-02-26T13:57:07;11.40;46.97
65203;HTU21D;51788;45.124;38.966;2024-02-26T13:59:35;11.43;46.46
65203;HTU21D;51788;45.124;38.966;2024-02-26T14:02:01;11.40;46.72
65203;HTU21D;51788;45.124;38.966;2024-02-26T14:04:26;11.43;45.71
65203;HTU21D;51788;45.124;38.966;2024-02-26T14:06:52;11.44;45.75
65203;HTU21D;51788;45.124;38.966;2024-02-26T14:09:18;11.38;45.96
65203;HTU21D;51788;45.124;38.966;2024-02-26T14:11:48;11.38;45.65
65203;HTU21D;51788;45.124;38.966;2024-02-26T14:14:14;11.34;45.48
65203;HTU21D;51788;45.124;38.966;2024-02-26T14:16:40;11.32;45.44
65203;HTU21D;51788;45.124;38.966;2024-02-26T14:19:06;11.28;45.28
65203;HTU21D;51788;45.124;38.966;2024-02-26T14:21:32;11.29;44.67
65203;HTU21D;51788;45.124;38.966;2024-02-26T14:23:58;11.23;44.85
65203;HTU21D;51788;45.124;38.966;2024-02-26T14:26:24;11.15;45.06
65203;HTU21D;51788;45.124;38.966;2024-02-26T14:28:50;11.13;44.81
65203;HTU21D;51788;45.124;38.966;2024-02-26T14:31:19;11.09;44.88
65203;HTU21D;51788;45.124;38.966;2024-02-26T14:33:45;11.04;44.54
65203;HTU21D;51788;45.124;38.966;2024-02-26T14:36:12;10.96;44.93
65203;HTU21D;51788;45.124;38.966;2024-02-26T14:38:38;10.89;45.38
65203;HTU21D;51788;45.124;38.966;2024-02-26T14:41:05;10.86;44.99
65203;HTU21D;51788;45.124;38.966;2024-02-26T14:43:31;10.77;45.35
65203;HTU21D;51788;45.124;38.966;2024-02-26T14:45:58;10.71;45.18
65203;HTU21D;51788;45.124;38.966;2024-02-26T14:48:27;10.69;44.64
65203;HTU21D;51788;45.124;38.966;2024-02-26T14:50:55;10.62;44.74
65203;HTU21D;51788;45.124;38.966;2024-02-26T14:53:21;10.52;45.14
65203;HTU21D;51788;45.124;38.966;2024-02-26T14:55:47;10.48;44.67
65203;HTU21D;51788;45.124;38.966;2024-02-26T14:58:13;10.39;44.83
65203;HTU21D;51788;45.124;38.966;2024-02-26T15:00:39;10.31;44.72
65203;HTU21D;51788;45.124;38.966;2024-02-26T15:03:05;10.24;45.01
65203;HTU21D;51788;45.124;38.966;2024-02-26T15:05:32;10.22;44.51
65203;HTU21D;51788;45.124;38.966;2024-02-26T15:07:58;10.10;45.10
65203;HTU21D;51788;45.124;38.966;2024-02-26T15:10:28;10.00;45.30
65203;HTU21D;51788;45.124;38.966;2024-02-26T15:12:56;9.90;45.40